Aggersund, Denmark

2:46 PM CEST on October 24, 2014 (GMT +0200)
Halvrimmen | Change Station
CLOSE
Current Station
Personal Weather Station
Location: Brovst, JYLLAND
Elevation: 13 ft
Nearby Weather Stations

Elev 13 ft 57.12 °N, 9.59 °E | Updated 3 minutes ago

Rain
Rain Mist
55.4 °F
Feels Like 55.4 °F
N
12.0
Wind Variable Wind from South
Gusts 17.0 mph

Today
High -- | Low -- °F
--% Chance of Precip.
Yesterday
High -- | Low -- °F
Precip. -- in
8:15 AM 5:57 PM
New Moon, 0% visible
Pressure 29.95 in
Visibility 1.1 miles
Clouds Scattered Clouds 400 ft
Mostly Cloudy 600 ft
Dew Point 54 °F
Humidity 96%
Rainfall 0.05 in
Snow Depth Not available.
UV 0.6 out of 12
Pollen Not available.
Air Quality Not available.
Flu Activity Not available.
SPECI EKKA 241239Z 19012G22KT 1800 -DZRA BR SCT004 BKN006 13/12 Q1014

More Conditions Fewer Conditions

Pressure 29.95 in
Visibility 1.1 miles
Clouds Scattered Clouds 400 ft
Mostly Cloudy 600 ft
Dew Point 54 °F
Humidity 96%
Rainfall 0.05 in
Snow Depth Not available.
UV 0.6 out of 12
Pollen Not available.
Air Quality Not available.
Flu Activity Not available.
SPECI EKKA 241239Z 19012G22KT 1800 -DZRA BR SCT004 BKN006 13/12 Q1014

More Conditions Fewer Conditions

10-Day Weather Forecast

Almanac

Astronomy

Oct. 24, 2014 Rise Set
Actual Time 8:15 AM CEST 5:57 PM CEST
Civil Twilight 7:35 AM CEST 6:37 PM CEST
Nautical Twilight 6:50 AM CEST 7:22 PM CEST
Astronomical Twilight 6:06 AM CEST 8:06 PM CEST
Moon 8:41 AM CEST 6:19 PM CEST
Length of Visible Light 11h 02m
Length of Day
9h 42m
Tomorrow will be 4m 38s shorter.
New Moon, 0% of the Moon is Illuminated
Today
New Moon
Oct 30
First Quarter
Nov 6
Full
Nov 14
Last Quarter
Nov 22
New

Yesterday's Extremes

Country Highs Country Lows

Community

WunderPhotos

Upload Photos

1,764,544 photos uploaded!

Nearby

Snow Depth

Not available.

Earthquake Activity

City Distance Mag. Time & Date
No recent earthquake activity has been reported nearby.
Minimum magnitude displayed is 2.5.

Coastal Water Temperatures

Place Temperature
No Stations Reporting

Nearby Weather Stations